CheckWX is a tool to help pilots better visualize weather data.  It is not intended as a substitute for an official pre-flight weather briefing.

20:57:29 UTC

LTCW TAF
Hakkari–Yüksekova Airport
Yüksekova, Turkey
TAF LTCW 221940Z 2221/2306 VRB02KT 6000 SCT040 TEMPO 2300/2303 3000 BR TEMPO 2303/2306 1600 BR

Mar-22@
21:00 UTC

Mar-22 @ 21:00 UTC

Mar-23@
06:00 UTC

Mar-23 @ 06:00 UTC

TAF LTCW 221940Z 2221/2306 VRB02KT 6000 SCT040
Wind
  • Variable at 2 KTS
Cloud Levels
  • Scattered at 4,000' AGL

Mar-23@
00:00 UTC

Mar-23 @ 00:00 UTC

Mar-23@
03:00 UTC

Mar-23 @ 03:00 UTC

TEMPO 2300/2303 3000 BR

Temporary

Temporary Changes expected for less than half the time period

Conditions
Mist

Mar-23@
03:00 UTC

Mar-23 @ 03:00 UTC

Mar-23@
06:00 UTC

Mar-23 @ 06:00 UTC

TEMPO 2303/2306 1600 BR

Temporary

Temporary Changes expected for less than half the time period

Conditions
Mist